This is the latest recevied weather packets stored in our database for station/object DK4HPA-4. If no packets are shown the sender has not sent any weather packets the latest 10 day(s).
| Time | Temp. | Humidity | Pressure | Rain* | Wind** | Luminosity | Snow |
|---|---|---|---|---|---|---|---|
| 1778173294 | 14.44° C | 56% | 1023.5 hPa | 0 mm | - | 51 W/m² | - |
| 1778171538 | 14.44° C | 54% | 1023.4 hPa | 0 mm | - | 59 W/m² | - |
| 1778170913 | 14.44° C | 55% | 1023.4 hPa | 0 mm | - | 73 W/m² | - |
| 1778169638 | 13.33° C | 59% | 1023.4 hPa | 0 mm | - | 65 W/m² | - |
| 1778168510 | 15.56° C | 53% | 1023.2 hPa | 0 mm | - | 181 W/m² | - |
| 1778167285 | 14.44° C | 55% | 1023.3 hPa | 0 mm | - | 109 W/m² | - |
| 1778166648 | 15° C | 52% | 1023.2 hPa | 0 mm | - | 363 W/m² | - |
| 1778166054 | 15° C | 54% | 1023.2 hPa | 0 mm | - | 153 W/m² | - |
| 1778165439 | 15° C | 56% | 1023 hPa | 0 mm | - | 494 W/m² | - |
| 1778164960 | 15° C | 54% | 1023.1 hPa | 0 mm | - | 123 W/m² | - |
| 1778164239 | 16.11° C | 50% | 1023 hPa | 0 mm | - | 433 W/m² | - |
| 1778163663 | 15° C | 52% | 1023.1 hPa | 0 mm | - | 292 W/m² | - |
| 1778163086 | 16.11° C | 50% | 1023.1 hPa | 0 mm | - | 502 W/m² | - |
| 1778162445 | 15.56° C | 50% | 1023 hPa | 0 mm | - | 449 W/m² | - |
| 1778161885 | 16.11° C | 48% | 1023 hPa | 0 mm | - | 426 W/m² | - |
| 1778161238 | 15.56° C | 49% | 1022.9 hPa | 0 mm | - | 550 W/m² | - |
| 1778160662 | 15.56° C | 51% | 1022.9 hPa | 0 mm | - | 274 W/m² | - |
| 1778159438 | 15° C | 53% | 1022.9 hPa | 0 mm | - | 427 W/m² | - |
| 1778158888 | 15° C | 54% | 1023 hPa | 0 mm | - | 469 W/m² | - |
| 1778158290 | 15.56° C | 53% | 1022.9 hPa | 0 mm | - | 569 W/m² | - |
| 1778157710 | 15.56° C | 51% | 1022.9 hPa | 0 mm | - | 406 W/m² | - |
| 1778157092 | 15.56° C | 51% | 1022.7 hPa | 0 mm | - | 635 W/m² | - |
| 1778154665 | 15° C | 52% | 1022.7 hPa | 0 mm | - | 641 W/m² | - |
| 1778154062 | 15° C | 51% | 1022.6 hPa | 0 mm | - | 654 W/m² | - |
| 1778153469 | 15° C | 52% | 1022.7 hPa | 0 mm | - | 691 W/m² | - |
* Rain latest hour (hover to see other rain measurements)
** Current wind speed in m/s (hover to see current wind gust speed)